createdAt,value
2022-09-22T00:02:16.754Z,5.52
2022-09-22T00:04:43.270Z,5.56
2022-09-22T00:07:10.028Z,5.59
2022-09-22T00:09:36.521Z,5.53
2022-09-22T00:12:03.000Z,5.51
2022-09-22T00:14:29.487Z,5.44
2022-09-22T00:16:59.281Z,5.42
2022-09-22T00:19:32.039Z,5.40
2022-09-22T00:21:59.324Z,5.44
2022-09-22T00:24:27.686Z,5.54
2022-09-22T00:26:59.168Z,5.42
2022-09-22T00:29:27.673Z,5.35
2022-09-22T00:31:55.005Z,5.30
2022-09-22T00:34:25.367Z,5.29
2022-09-22T00:36:51.900Z,5.29
2022-09-22T00:39:18.962Z,5.31
2022-09-22T00:41:48.848Z,5.36
2022-09-22T00:44:21.525Z,5.29
2022-09-22T00:46:57.152Z,5.23
2022-09-22T00:49:33.070Z,5.17
2022-09-22T00:52:00.870Z,5.18
2022-09-22T00:54:27.628Z,5.17
2022-09-22T00:57:05.922Z,5.15
2022-09-22T00:59:32.997Z,5.19
2022-09-22T01:01:59.635Z,5.27
2022-09-22T01:04:26.808Z,5.39
2022-09-22T01:06:55.297Z,5.27
2022-09-22T01:09:23.270Z,5.30
2022-09-22T01:11:49.824Z,5.22
2022-09-22T01:14:46.607Z,5.21
2022-09-22T01:17:22.403Z,5.14
2022-09-22T01:20:15.010Z,5.26
2022-09-22T01:23:05.722Z,5.05
2022-09-22T01:25:54.102Z,5.01
2022-09-22T01:29:01.501Z,5.08
2022-09-22T01:31:34.816Z,5.08
2022-09-22T01:34:17.594Z,4.99
2022-09-22T01:36:54.839Z,4.90
2022-09-22T01:39:32.078Z,4.83
2022-09-22T01:42:09.393Z,4.82
2022-09-22T01:44:46.019Z,4.88
2022-09-22T01:47:24.305Z,5.00
2022-09-22T01:49:59.337Z,5.05
2022-09-22T01:52:29.110Z,4.91
2022-09-22T01:54:59.793Z,4.81
2022-09-22T01:57:54.969Z,4.76
2022-09-22T02:00:23.225Z,4.72
2022-09-22T02:03:14.478Z,4.67
2022-09-22T02:06:01.623Z,4.63
2022-09-22T02:08:47.922Z,4.61
2022-09-22T02:11:16.261Z,4.57
2022-09-22T02:13:47.168Z,4.54
2022-09-22T02:16:16.036Z,4.49
2022-09-22T02:18:53.363Z,4.48
2022-09-22T02:21:21.861Z,4.45
2022-09-22T02:23:49.342Z,4.44
2022-09-22T02:26:23.899Z,4.40
2022-09-22T02:29:17.937Z,4.37
2022-09-22T02:31:46.154Z,4.36
2022-09-22T02:34:13.039Z,4.32
2022-09-22T02:37:27.039Z,4.30
2022-09-22T02:40:23.786Z,4.26
2022-09-22T02:43:01.667Z,4.24
2022-09-22T02:45:34.541Z,4.19
2022-09-22T02:48:05.750Z,4.22
2022-09-22T02:50:34.312Z,4.27
2022-09-22T02:53:12.572Z,4.25
2022-09-22T02:55:39.398Z,4.23
2022-09-22T02:58:06.313Z,4.24
2022-09-22T03:00:33.236Z,4.22
2022-09-22T03:03:00.494Z,4.16
2022-09-22T03:05:27.092Z,4.15
2022-09-22T03:07:53.590Z,4.14
2022-09-22T03:10:20.557Z,4.15
2022-09-22T03:13:14.553Z,4.14
2022-09-22T03:15:33.623Z,4.20
2022-09-22T03:18:00.445Z,4.19
2022-09-22T03:20:27.050Z,4.15
2022-09-22T03:22:53.513Z,4.15
2022-09-22T03:25:20.092Z,4.19
2022-09-22T03:27:46.777Z,4.40
2022-09-22T03:30:13.527Z,4.61
2022-09-22T03:32:40.033Z,4.71
2022-09-22T03:35:07.287Z,4.79
2022-09-22T03:37:34.953Z,4.64
2022-09-22T03:40:02.557Z,4.44
2022-09-22T03:42:29.201Z,4.33
2022-09-22T03:44:56.205Z,4.25
2022-09-22T03:47:24.941Z,4.18
2022-09-22T03:49:51.708Z,4.17
2022-09-22T03:52:18.175Z,4.25
2022-09-22T03:54:44.749Z,4.32
2022-09-22T03:57:11.228Z,4.22
2022-09-22T03:59:37.797Z,4.10
2022-09-22T04:02:04.729Z,4.04
2022-09-22T04:04:32.601Z,4.00
2022-09-22T04:07:07.083Z,3.93
2022-09-22T04:09:34.206Z,3.91
2022-09-22T04:12:00.972Z,3.89
2022-09-22T04:14:27.695Z,3.86
2022-09-22T04:16:54.414Z,3.87
2022-09-22T04:19:22.805Z,3.87
2022-09-22T04:21:54.670Z,3.88
2022-09-22T04:24:24.645Z,3.92
2022-09-22T04:27:18.094Z,3.91
2022-09-22T04:29:38.239Z,3.88
2022-09-22T04:32:05.226Z,3.88
2022-09-22T04:34:32.576Z,3.81
2022-09-22T04:36:59.070Z,3.74
2022-09-22T04:39:28.579Z,3.68
2022-09-22T04:41:55.581Z,3.69
2022-09-22T04:44:22.188Z,3.78
2022-09-22T04:46:51.489Z,3.79
2022-09-22T04:49:18.633Z,3.77
2022-09-22T04:51:46.268Z,3.73
2022-09-22T04:54:14.853Z,3.65
2022-09-22T04:56:44.594Z,3.60
2022-09-22T04:59:11.955Z,3.57
2022-09-22T05:01:38.679Z,3.57
2022-09-22T05:04:05.273Z,3.50
2022-09-22T05:06:31.722Z,3.45
2022-09-22T05:08:58.641Z,3.43
2022-09-22T05:11:25.553Z,3.38
2022-09-22T05:13:52.036Z,3.38
2022-09-22T05:16:18.667Z,3.37
2022-09-22T05:18:45.219Z,3.36
2022-09-22T05:21:11.805Z,3.36
2022-09-22T05:23:39.901Z,3.40
2022-09-22T05:26:06.885Z,3.41
2022-09-22T05:28:33.548Z,3.42
2022-09-22T05:31:00.143Z,3.40
2022-09-22T05:33:26.629Z,3.42
2022-09-22T05:35:53.077Z,3.47
2022-09-22T05:38:19.602Z,3.47
2022-09-22T05:40:49.215Z,3.52
2022-09-22T05:43:15.875Z,3.49
2022-09-22T05:45:44.698Z,3.51
2022-09-22T05:48:11.301Z,3.53
2022-09-22T05:50:40.672Z,3.53
2022-09-22T05:53:11.156Z,3.57
2022-09-22T05:55:39.346Z,3.59
2022-09-22T05:58:05.965Z,3.63
2022-09-22T06:00:32.950Z,3.72
2022-09-22T06:02:59.598Z,3.82
2022-09-22T06:05:26.728Z,3.89
2022-09-22T06:08:03.284Z,3.91
2022-09-22T06:10:32.012Z,3.97
2022-09-22T06:12:59.961Z,4.02
2022-09-22T06:15:27.791Z,4.10
2022-09-22T06:17:55.962Z,4.22
2022-09-22T06:20:22.908Z,4.31
2022-09-22T06:22:49.490Z,4.42
2022-09-22T06:25:16.192Z,4.52
2022-09-22T06:27:43.985Z,4.59
2022-09-22T06:30:11.726Z,4.71
2022-09-22T06:32:43.714Z,4.78
2022-09-22T06:35:10.290Z,4.83
2022-09-22T06:37:38.634Z,4.86
2022-09-22T06:40:08.324Z,4.94
2022-09-22T06:42:35.629Z,5.03
2022-09-22T06:45:05.229Z,5.11
2022-09-22T06:47:32.944Z,5.23
2022-09-22T06:50:01.381Z,5.44
2022-09-22T06:52:28.977Z,5.62
2022-09-22T06:55:00.931Z,5.75
2022-09-22T06:57:32.698Z,5.89
2022-09-22T07:00:00.966Z,6.00
2022-09-22T07:02:29.610Z,6.08
2022-09-22T07:04:59.486Z,6.21
2022-09-22T07:07:28.217Z,6.39
2022-09-22T07:09:55.472Z,6.64
2022-09-22T07:12:22.574Z,6.82
2022-09-22T07:14:49.625Z,6.99
2022-09-22T07:17:18.922Z,7.12
2022-09-22T07:19:47.075Z,7.28
2022-09-22T07:22:15.716Z,7.39
2022-09-22T07:24:45.812Z,7.51
2022-09-22T07:27:14.686Z,7.65
2022-09-22T07:29:42.756Z,7.80
2022-09-22T07:32:10.840Z,7.89
2022-09-22T07:34:37.381Z,8.00
2022-09-22T07:37:03.866Z,8.13
2022-09-22T07:39:30.319Z,8.20
2022-09-22T07:41:56.916Z,8.28
2022-09-22T07:44:44.525Z,8.36
2022-09-22T07:47:11.857Z,8.45
2022-09-22T07:49:38.309Z,8.57
2022-09-22T07:52:04.921Z,8.66
2022-09-22T07:54:34.121Z,8.81
2022-09-22T07:57:02.293Z,8.88
2022-09-22T07:59:28.838Z,9.05
2022-09-22T08:01:55.792Z,9.16
2022-09-22T08:04:23.919Z,9.24
2022-09-22T08:06:54.411Z,9.37
2022-09-22T08:09:21.205Z,9.52
2022-09-22T08:11:48.825Z,9.66
2022-09-22T08:14:18.713Z,9.81
2022-09-22T08:16:46.506Z,9.94
2022-09-22T08:19:14.740Z,9.99
2022-09-22T08:21:48.896Z,10.15
2022-09-22T08:24:21.826Z,10.36
2022-09-22T08:26:50.530Z,10.52
2022-09-22T08:29:17.127Z,10.67
2022-09-22T08:31:45.481Z,10.84
2022-09-22T08:34:13.959Z,10.96
2022-09-22T08:36:42.208Z,11.14
2022-09-22T08:39:08.660Z,11.29
2022-09-22T08:41:55.376Z,11.39
2022-09-22T08:44:26.125Z,11.52
2022-09-22T08:46:55.507Z,11.63
2022-09-22T08:49:54.665Z,11.73
2022-09-22T08:52:43.251Z,11.85
2022-09-22T08:55:21.075Z,12.00
2022-09-22T08:58:35.094Z,12.17
2022-09-22T09:01:40.728Z,12.33
2022-09-22T09:04:08.644Z,12.46
2022-09-22T09:07:16.127Z,12.66
2022-09-22T09:09:58.026Z,12.63
2022-09-22T09:12:38.994Z,12.75
2022-09-22T09:15:11.557Z,12.83
2022-09-22T09:17:40.302Z,12.91
2022-09-22T09:20:21.934Z,12.99
2022-09-22T09:22:55.904Z,13.13
2022-09-22T09:25:24.300Z,13.21
2022-09-22T09:27:57.163Z,13.28
2022-09-22T09:30:24.086Z,13.42
2022-09-22T09:33:37.030Z,13.49
2022-09-22T09:36:03.765Z,13.58
2022-09-22T09:38:39.868Z,13.65
2022-09-22T09:41:34.089Z,13.76
2022-09-22T09:44:03.069Z,13.79
2022-09-22T09:46:59.694Z,13.81
2022-09-22T09:49:26.203Z,13.91
2022-09-22T09:52:00.145Z,13.95
2022-09-22T09:54:27.774Z,14.00
2022-09-22T09:57:06.779Z,14.00
2022-09-22T09:59:54.002Z,14.09
2022-09-22T10:02:28.625Z,14.23
2022-09-22T10:05:04.934Z,14.35
2022-09-22T10:07:40.800Z,14.47
2022-09-22T10:10:31.880Z,14.69
2022-09-22T10:13:04.100Z,14.68
2022-09-22T10:15:32.802Z,14.73
2022-09-22T10:17:59.834Z,14.79
2022-09-22T10:20:34.225Z,14.79
2022-09-22T10:23:23.039Z,14.75
2022-09-22T10:25:50.713Z,14.89
2022-09-22T10:28:19.614Z,14.91
2022-09-22T10:31:04.483Z,14.98
2022-09-22T10:33:32.620Z,14.90
2022-09-22T10:36:11.163Z,14.91
2022-09-22T10:38:43.543Z,15.03
2022-09-22T10:41:27.818Z,15.04
2022-09-22T10:44:37.588Z,15.10
2022-09-22T10:47:27.147Z,15.19
2022-09-22T10:50:24.335Z,15.29
2022-09-22T10:53:03.105Z,15.36
2022-09-22T10:55:35.682Z,15.31
2022-09-22T10:58:07.067Z,15.33
2022-09-22T11:00:38.953Z,15.40
2022-09-22T11:03:37.988Z,15.20
2022-09-22T11:06:48.454Z,15.26
2022-09-22T11:09:49.922Z,15.42
2022-09-22T11:12:57.041Z,15.42
2022-09-22T11:15:45.861Z,15.48
2022-09-22T11:18:44.191Z,15.56
2022-09-22T11:21:44.577Z,15.41
2022-09-22T11:24:17.086Z,15.20
2022-09-22T11:26:48.984Z,15.18
2022-09-22T11:29:30.283Z,15.20
2022-09-22T11:32:17.223Z,15.35
2022-09-22T11:34:59.582Z,15.50
2022-09-22T11:37:29.229Z,15.80
2022-09-22T11:40:19.632Z,15.86
2022-09-22T11:43:03.687Z,15.82
2022-09-22T11:45:55.750Z,15.92
2022-09-22T11:48:47.185Z,15.95
2022-09-22T11:51:47.640Z,16.00
2022-09-22T11:54:21.220Z,16.02
2022-09-22T11:56:55.646Z,16.11
2022-09-22T11:59:37.241Z,16.09
2022-09-22T12:02:25.601Z,16.20
2022-09-22T12:04:57.536Z,16.44
2022-09-22T12:07:31.226Z,16.40
2022-09-22T12:10:05.414Z,16.33
2022-09-22T12:12:33.323Z,16.18
2022-09-22T12:15:20.512Z,16.04
2022-09-22T12:17:56.994Z,16.04
2022-09-22T12:20:44.028Z,16.04
2022-09-22T12:23:23.776Z,16.14
2022-09-22T12:25:55.556Z,16.22
2022-09-22T12:28:32.679Z,16.26
2022-09-22T12:31:22.430Z,16.20
2022-09-22T12:33:52.609Z,16.18
2022-09-22T12:36:32.411Z,16.11
2022-09-22T12:39:28.988Z,15.98
2022-09-22T12:42:03.154Z,15.77
2022-09-22T12:44:46.062Z,15.65
2022-09-22T12:47:22.773Z,15.79
2022-09-22T12:49:56.891Z,15.93
2022-09-22T12:52:43.782Z,16.03
2022-09-22T12:55:28.591Z,16.01
2022-09-22T12:57:59.286Z,16.06
2022-09-22T13:00:33.004Z,16.12
2022-09-22T13:03:00.131Z,16.17
2022-09-22T13:05:26.971Z,16.31
2022-09-22T13:07:54.631Z,16.22
2022-09-22T13:10:24.405Z,16.17
2022-09-22T13:13:12.655Z,16.13
2022-09-22T13:15:51.390Z,16.19
2022-09-22T13:18:39.216Z,16.18
2022-09-22T13:21:12.639Z,16.19
2022-09-22T13:23:51.167Z,16.28
2022-09-22T13:26:22.176Z,16.27
2022-09-22T13:29:11.665Z,16.15
2022-09-22T13:31:46.934Z,15.94
2022-09-22T13:34:37.229Z,15.72
2022-09-22T13:37:12.359Z,15.58
2022-09-22T13:39:47.402Z,15.55
2022-09-22T13:42:34.134Z,15.62
2022-09-22T13:45:24.087Z,15.78
2022-09-22T13:47:54.338Z,15.61
2022-09-22T13:50:24.353Z,15.50
2022-09-22T13:52:52.602Z,15.52
2022-09-22T13:55:32.615Z,15.49
2022-09-22T13:58:03.894Z,15.48
2022-09-22T14:01:14.359Z,15.53
2022-09-22T14:03:41.818Z,15.52
2022-09-22T14:06:15.645Z,15.55
2022-09-22T14:08:45.036Z,15.48
2022-09-22T14:11:17.044Z,15.40
2022-09-22T14:13:59.096Z,15.37
2022-09-22T14:16:48.339Z,15.46
2022-09-22T14:19:15.999Z,15.60
2022-09-22T14:21:55.337Z,15.67
2022-09-22T14:24:22.622Z,15.61
2022-09-22T14:27:01.590Z,15.53
2022-09-22T14:29:32.885Z,15.48
2022-09-22T14:32:12.503Z,15.51
2022-09-22T14:34:40.008Z,15.38
2022-09-22T14:37:27.166Z,15.33
2022-09-22T14:39:55.558Z,15.39
2022-09-22T14:42:28.671Z,15.35
2022-09-22T14:45:10.247Z,15.32
2022-09-22T14:47:40.529Z,15.23
2022-09-22T14:50:20.168Z,15.18
2022-09-22T14:53:02.044Z,15.11
2022-09-22T14:55:34.363Z,15.12
2022-09-22T14:58:05.323Z,15.18
2022-09-22T15:00:51.137Z,15.18
2022-09-22T15:03:27.133Z,15.15
2022-09-22T15:05:55.496Z,15.16
2022-09-22T15:08:27.858Z,15.16
2022-09-22T15:10:57.176Z,15.16
2022-09-22T15:13:38.041Z,15.13
2022-09-22T15:16:07.290Z,15.15
2022-09-22T15:18:34.004Z,15.03
2022-09-22T15:21:14.322Z,15.02
2022-09-22T15:23:48.101Z,14.98
2022-09-22T15:26:25.249Z,15.05
2022-09-22T15:28:54.383Z,15.02
2022-09-22T15:31:27.089Z,14.91
2022-09-22T15:34:00.294Z,14.85
2022-09-22T15:36:33.162Z,14.75
2022-09-22T15:39:09.434Z,14.70
2022-09-22T15:41:36.011Z,14.63
2022-09-22T15:44:06.088Z,14.53
2022-09-22T15:46:35.886Z,14.47
2022-09-22T15:49:22.583Z,14.35
2022-09-22T15:51:53.060Z,14.31
2022-09-22T15:54:22.004Z,14.20
2022-09-22T15:56:52.295Z,14.13
2022-09-22T15:59:22.838Z,14.07
2022-09-22T16:01:51.964Z,14.04
2022-09-22T16:04:19.738Z,13.96
2022-09-22T16:06:52.144Z,13.87
2022-09-22T16:09:19.191Z,13.77
2022-09-22T16:11:46.299Z,13.67
2022-09-22T16:14:13.052Z,13.54
2022-09-22T16:16:39.807Z,13.43
2022-09-22T16:19:09.735Z,13.36
2022-09-22T16:21:38.329Z,13.29
2022-09-22T16:24:08.535Z,13.16
2022-09-22T16:26:39.784Z,13.08
2022-09-22T16:29:07.712Z,12.99
2022-09-22T16:31:43.140Z,12.91
2022-09-22T16:34:10.741Z,12.83
2022-09-22T16:36:40.062Z,12.85
2022-09-22T17:01:41.600Z,11.84
2022-09-22T17:04:09.237Z,11.74
2022-09-22T17:06:38.444Z,11.65
2022-09-22T17:09:06.094Z,11.58
2022-09-22T17:11:36.421Z,11.50
2022-09-22T17:14:12.353Z,11.37
2022-09-22T17:16:41.577Z,11.22
2022-09-22T17:19:20.069Z,11.14
2022-09-22T17:21:48.542Z,11.06
2022-09-22T17:24:16.086Z,10.89
2022-09-22T17:26:48.071Z,10.82
2022-09-22T17:29:18.980Z,10.74
2022-09-22T17:31:49.450Z,10.65
2022-09-22T17:34:16.087Z,10.54
2022-09-22T17:36:42.949Z,10.51
2022-09-22T17:39:10.701Z,10.45
2022-09-22T17:41:45.571Z,10.38
2022-09-22T17:44:13.155Z,10.30
2022-09-22T17:46:59.652Z,10.18
2022-09-22T17:49:45.032Z,10.15
2022-09-22T17:52:34.272Z,10.19
2022-09-22T17:55:06.817Z,10.13
2022-09-22T17:57:35.975Z,10.09
2022-09-22T18:00:08.643Z,10.03
2022-09-22T18:02:41.686Z,10.02
2022-09-22T18:05:11.011Z,9.99
2022-09-22T18:07:40.505Z,9.91
2022-09-22T18:10:16.004Z,9.86
2022-09-22T18:12:43.482Z,9.80
2022-09-22T18:15:13.460Z,9.81
2022-09-22T18:17:42.134Z,9.75
2022-09-22T18:20:14.873Z,9.70
2022-09-22T18:22:47.671Z,9.61
2022-09-22T18:25:15.265Z,9.52
2022-09-22T18:27:42.371Z,9.50
2022-09-22T18:30:14.141Z,9.43
2022-09-22T18:32:42.461Z,9.41
2022-09-22T18:35:11.172Z,9.33
2022-09-22T18:37:37.781Z,9.24
2022-09-22T18:40:05.322Z,9.15
2022-09-22T18:42:32.435Z,9.14
2022-09-22T18:44:59.104Z,9.07
2022-09-22T18:47:26.314Z,9.02
2022-09-22T18:49:52.966Z,8.98
2022-09-22T18:52:24.713Z,8.96
2022-09-22T18:54:54.050Z,8.93
2022-09-22T18:57:25.654Z,8.84
2022-09-22T18:59:54.211Z,8.79
2022-09-22T19:02:22.442Z,8.75
2022-09-22T19:04:51.255Z,8.74
2022-09-22T19:07:40.582Z,8.63
2022-09-22T19:10:13.682Z,8.68
2022-09-22T19:12:40.441Z,8.60
2022-09-22T19:15:16.828Z,8.62
2022-09-22T19:17:45.775Z,8.55
2022-09-22T19:20:16.297Z,8.47
2022-09-22T19:22:43.564Z,8.47
2022-09-22T19:25:10.995Z,8.46
2022-09-22T19:27:39.651Z,8.47
2022-09-22T19:30:07.429Z,8.44
2022-09-22T19:32:34.059Z,8.37
2022-09-22T19:35:00.810Z,8.32
2022-09-22T19:37:29.340Z,8.31
2022-09-22T19:39:56.629Z,8.27
2022-09-22T19:42:23.982Z,8.24
2022-09-22T19:44:50.899Z,8.21
2022-09-22T19:47:22.898Z,8.19
2022-09-22T19:49:49.769Z,8.15
2022-09-22T19:52:16.686Z,8.21
2022-09-22T19:54:44.985Z,8.19
2022-09-22T19:57:11.758Z,8.18
2022-09-22T19:59:38.342Z,8.11
2022-09-22T20:02:11.984Z,8.05
2022-09-22T20:04:39.246Z,7.98
2022-09-22T20:07:08.767Z,7.95
2022-09-22T20:09:35.488Z,7.94
2022-09-22T20:12:03.616Z,7.89
2022-09-22T20:14:31.993Z,7.88
2022-09-22T20:17:02.160Z,7.93
2022-09-22T20:19:34.303Z,7.92
2022-09-22T20:22:25.094Z,7.85
2022-09-22T20:24:55.107Z,7.82
2022-09-22T20:27:26.905Z,7.76
2022-09-22T20:29:57.101Z,7.73
2022-09-22T20:32:25.848Z,7.71
2022-09-22T20:34:54.261Z,7.70
2022-09-22T20:37:21.145Z,7.67
2022-09-22T20:39:47.721Z,7.66
2022-09-22T20:42:15.489Z,7.65
2022-09-22T20:44:42.622Z,7.68
2022-09-22T20:47:13.861Z,7.71
2022-09-22T20:49:41.994Z,7.66
2022-09-22T20:52:14.206Z,7.61
2022-09-22T20:54:40.817Z,7.61
2022-09-22T20:57:07.626Z,7.55
2022-09-22T20:59:34.180Z,7.56
2022-09-22T21:02:00.968Z,7.53
2022-09-22T21:04:28.281Z,7.49
2022-09-22T21:06:55.676Z,7.44
2022-09-22T21:09:41.913Z,7.43
2022-09-22T21:12:09.257Z,7.36
2022-09-22T21:14:36.132Z,7.37
2022-09-22T21:17:06.903Z,7.33
2022-09-22T21:19:34.579Z,7.30
2022-09-22T21:22:01.238Z,7.30
2022-09-22T21:24:28.292Z,7.31
2022-09-22T21:26:54.863Z,7.28
2022-09-22T21:29:21.666Z,7.29
2022-09-22T21:31:49.778Z,7.36
2022-09-22T21:34:19.559Z,7.32
2022-09-22T21:36:46.194Z,7.36
2022-09-22T21:39:12.804Z,7.44
2022-09-22T21:41:39.322Z,7.45
2022-09-22T21:44:05.937Z,7.48
2022-09-22T21:46:33.412Z,7.56
2022-09-22T21:49:02.110Z,7.55
2022-09-22T21:51:36.958Z,7.57
2022-09-22T21:54:05.280Z,7.55
2022-09-22T21:56:33.762Z,7.57
2022-09-22T21:59:02.838Z,7.56
2022-09-22T22:01:31.963Z,7.51
2022-09-22T22:04:00.238Z,7.47
2022-09-22T22:06:32.648Z,7.46
2022-09-22T22:09:02.490Z,7.44
2022-09-22T22:11:32.798Z,7.43
2022-09-22T22:14:01.379Z,7.43
2022-09-22T22:16:33.892Z,7.27
2022-09-22T22:19:01.530Z,7.26
2022-09-22T22:21:30.054Z,7.19
2022-09-22T22:24:19.091Z,7.17
2022-09-22T22:26:53.207Z,7.05
2022-09-22T22:29:21.110Z,7.03
2022-09-22T22:31:51.909Z,7.04
2022-09-22T22:34:20.810Z,6.95
2022-09-22T22:36:48.739Z,6.89
2022-09-22T22:39:15.635Z,6.89
2022-09-22T22:41:42.191Z,6.92
2022-09-22T22:44:08.934Z,6.84
2022-09-22T22:46:36.245Z,6.77
2022-09-22T22:49:03.525Z,6.75
2022-09-22T22:51:30.519Z,6.69
2022-09-22T22:53:57.015Z,6.67
2022-09-22T22:56:26.075Z,6.59
2022-09-22T22:58:53.587Z,6.60
2022-09-22T23:01:23.123Z,6.57
2022-09-22T23:04:00.465Z,6.50
2022-09-22T23:06:29.826Z,6.47
2022-09-22T23:08:56.906Z,6.39
2022-09-22T23:11:29.921Z,6.42
2022-09-22T23:14:02.036Z,6.44
2022-09-22T23:16:31.608Z,6.42
2022-09-22T23:19:01.368Z,6.39
2022-09-22T23:21:30.318Z,6.44
2022-09-22T23:23:57.201Z,6.47
2022-09-22T23:26:27.958Z,6.39
2022-09-22T23:28:55.062Z,6.41
2022-09-22T23:31:22.199Z,6.35
2022-09-22T23:33:50.689Z,6.29
2022-09-22T23:36:19.676Z,6.30
2022-09-22T23:38:46.509Z,6.25
2022-09-22T23:41:13.543Z,6.23
2022-09-22T23:43:40.349Z,6.26
2022-09-22T23:46:07.782Z,6.20
2022-09-22T23:48:35.449Z,6.12
2022-09-22T23:51:02.898Z,6.12
2022-09-22T23:53:35.276Z,6.17
2022-09-22T23:56:02.696Z,6.19
2022-09-22T23:58:30.366Z,6.18
